Time;durP1;ratioP1;P1;durP2;ratioP2;P2;SDS_P1;SDS_P2;PMS_P1;PMS_P2;Temp;Humidity;BMP_temperature;BMP_pressure;BME280_temperature;BME280_humidity;BME280_pressure;Samples;Min_cycle;Max_cycle;Signal;HPM_P1;HPM_P2
2024/01/18 00:02:12;;;;;;;6.43;5.07;;;1.30;99.90;;;;;;5024779;28;20272;-67
2024/01/18 00:04:41;;;;;;;6.27;5.27;;;1.30;99.90;;;;;;5034588;28;20271;-66
2024/01/18 00:07:07;;;;;;;7.33;5.50;;;1.30;99.90;;;;;;5033205;28;20197;-66
2024/01/18 00:09:35;;;;;;;7.77;5.97;;;1.30;99.90;;;;;;5033226;28;20185;-67
2024/01/18 00:12:05;;;;;;;7.97;6.37;;;1.30;99.90;;;;;;5036072;28;20170;-67
2024/01/18 00:14:31;;;;;;;8.53;6.33;;;1.30;99.90;;;;;;5031178;28;20354;-64
2024/01/18 00:16:59;;;;;;;9.17;6.50;;;1.30;99.90;;;;;;5018464;28;20306;-67
2024/01/18 00:19:27;;;;;;;8.27;6.00;;;1.30;99.90;;;;;;5035817;28;20177;-66
2024/01/18 00:21:55;;;;;;;11.87;7.43;;;1.30;99.90;;;;;;5020584;28;20167;-66
2024/01/18 00:24:25;;;;;;;9.73;7.50;;;1.30;99.90;;;;;;5032011;28;20189;-67
2024/01/18 00:26:53;;;;;;;10.80;7.97;;;1.30;99.90;;;;;;5022936;28;20209;-66
2024/01/18 00:29:18;;;;;;;9.10;7.07;;;1.30;99.90;;;;;;5033308;28;20171;-67
2024/01/18 00:31:46;;;;;;;10.40;7.87;;;1.30;99.90;;;;;;5033676;28;20170;-66
2024/01/18 00:34:12;;;;;;;10.93;7.67;;;1.30;99.90;;;;;;5022629;28;20242;-66
2024/01/18 00:36:37;;;;;;;14.63;9.83;;;1.30;99.90;;;;;;5032538;28;20222;-66
2024/01/18 00:39:09;;;;;;;14.57;9.80;;;1.30;99.90;;;;;;5033325;28;20190;-66
2024/01/18 00:41:37;;;;;;;14.50;10.07;;;1.20;99.90;;;;;;5029533;28;20218;-66
2024/01/18 00:44:05;;;;;;;14.37;9.80;;;1.20;99.90;;;;;;5015731;28;20202;-67
2024/01/18 00:46:39;;;;;;;12.63;9.43;;;1.20;99.90;;;;;;5032961;28;20240;-63
2024/01/18 00:49:05;;;;;;;12.50;9.40;;;1.20;99.90;;;;;;5033561;28;20186;-66
2024/01/18 00:51:31;;;;;;;12.50;8.80;;;1.20;99.90;;;;;;5033868;28;20182;-67
2024/01/18 00:53:56;;;;;;;11.83;8.23;;;1.20;99.90;;;;;;5032137;28;20206;-66
2024/01/18 00:56:24;;;;;;;12.07;8.87;;;1.20;99.90;;;;;;5035213;28;20186;-67
2024/01/18 00:58:52;;;;;;;13.27;9.60;;;1.20;99.90;;;;;;5032585;28;20178;-67
2024/01/18 01:01:17;;;;;;;12.40;9.20;;;1.20;99.90;;;;;;5033961;28;20213;-66
2024/01/18 01:03:48;;;;;;;14.10;9.83;;;1.20;99.90;;;;;;5033341;28;20267;-67
2024/01/18 01:06:13;;;;;;;12.90;9.50;;;1.10;99.90;;;;;;5026606;28;20190;-64
2024/01/18 01:08:44;;;;;;;13.27;9.10;;;1.10;99.90;;;;;;5034391;28;20212;-64
2024/01/18 01:11:14;;;;;;;12.13;8.80;;;1.10;99.90;;;;;;5025346;28;20213;-66
2024/01/18 01:13:40;;;;;;;11.47;8.33;;;1.10;99.90;;;;;;5033729;28;20169;-66
2024/01/18 01:16:06;;;;;;;13.03;8.40;;;1.10;99.90;;;;;;5028391;28;20255;-66
2024/01/18 01:18:34;;;;;;;13.07;9.33;;;1.10;99.90;;;;;;5022153;28;20198;-66
2024/01/18 01:21:06;;;;;;;11.33;8.80;;;1.10;99.90;;;;;;5026795;28;20248;-65
2024/01/18 01:23:38;;;;;;;11.07;7.77;;;1.10;99.90;;;;;;5030170;28;20209;-66
2024/01/18 01:26:08;;;;;;;11.80;8.13;;;1.20;99.90;;;;;;5027998;28;20247;-65
2024/01/18 01:28:34;;;;;;;11.63;8.30;;;1.10;99.90;;;;;;5028314;28;20202;-66
2024/01/18 01:30:59;;;;;;;12.13;7.73;;;1.10;99.90;;;;;;5034867;28;20181;-65
2024/01/18 01:33:25;;;;;;;11.57;8.23;;;1.10;99.90;;;;;;5030823;28;20192;-66
2024/01/18 01:35:53;;;;;;;9.77;7.60;;;1.10;99.90;;;;;;5033442;28;20174;-66
2024/01/18 01:38:23;;;;;;;11.40;8.20;;;1.20;99.90;;;;;;5034770;28;20263;-66
2024/01/18 01:40:51;;;;;;;10.83;7.87;;;1.20;99.90;;;;;;5028116;28;20175;-65
2024/01/18 01:43:23;;;;;;;11.23;7.70;;;1.20;99.90;;;;;;5034091;28;20249;-65
2024/01/18 01:45:50;;;;;;;10.10;8.07;;;1.20;99.90;;;;;;5032543;28;20407;-66
2024/01/18 01:48:19;;;;;;;14.37;8.70;;;1.20;99.90;;;;;;5031924;28;20276;-66
2024/01/18 01:50:46;;;;;;;10.90;8.07;;;1.20;99.90;;;;;;5015801;28;20182;-66
2024/01/18 01:53:16;;;;;;;12.23;8.50;;;1.20;99.90;;;;;;5025331;28;20185;-67
2024/01/18 01:55:43;;;;;;;12.03;9.10;;;1.20;99.90;;;;;;5032137;28;20205;-66
2024/01/18 01:58:14;;;;;;;14.97;9.57;;;1.10;99.90;;;;;;5029480;28;20186;-66
2024/01/18 02:00:45;;;;;;;12.50;8.90;;;1.10;99.90;;;;;;5014323;28;20245;-66
2024/01/18 02:03:15;;;;;;;14.37;10.00;;;1.10;99.90;;;;;;5027826;28;20193;-67
2024/01/18 02:05:41;;;;;;;14.83;9.90;;;1.10;99.90;;;;;;5027360;28;20209;-67
2024/01/18 02:08:07;;;;;;;14.30;9.97;;;1.10;99.90;;;;;;5025312;28;20253;-66
2024/01/18 02:10:33;;;;;;;13.40;10.00;;;1.10;99.90;;;;;;5033327;28;20182;-65
2024/01/18 02:13:02;;;;;;;12.60;8.93;;;1.00;99.90;;;;;;5015086;28;20174;-66
2024/01/18 02:15:30;;;;;;;11.20;8.33;;;1.00;99.90;;;;;;5018961;28;20202;-65
2024/01/18 02:17:56;;;;;;;12.57;8.80;;;1.00;99.90;;;;;;5033480;28;20185;-67
2024/01/18 02:20:22;;;;;;;9.47;7.47;;;1.00;99.90;;;;;;5030797;28;20249;-65
2024/01/18 02:22:48;;;;;;;10.70;7.87;;;1.00;99.90;;;;;;5018156;28;20187;-67
2024/01/18 02:25:25;;;;;;;10.60;7.70;;;1.00;99.90;;;;;;5029196;28;20243;-66
2024/01/18 02:27:56;;;;;;;10.43;7.33;;;1.00;99.90;;;;;;5032973;28;20201;-67
2024/01/18 02:30:24;;;;;;;10.47;7.53;;;1.00;99.90;;;;;;5033639;28;20253;-66
2024/01/18 02:32:50;;;;;;;9.93;7.37;;;1.00;99.90;;;;;;5031709;28;20245;-66
2024/01/18 02:35:16;;;;;;;9.93;7.47;;;1.00;99.90;;;;;;5032529;28;20185;-66
2024/01/18 02:37:44;;;;;;;10.97;7.67;;;1.00;99.90;;;;;;5029793;28;20340;-66
2024/01/18 02:40:10;;;;;;;11.50;7.73;;;1.00;99.90;;;;;;5013801;28;20203;-65
2024/01/18 02:42:36;;;;;;;10.73;7.50;;;1.00;99.90;;;;;;5033122;28;20265;-67
2024/01/18 02:45:03;;;;;;;9.20;7.03;;;1.00;99.90;;;;;;5027487;28;20194;-66
2024/01/18 02:47:29;;;;;;;9.97;7.37;;;1.00;99.90;;;;;;5018698;28;20178;-66
2024/01/18 02:49:56;;;;;;;11.47;8.20;;;1.00;99.90;;;;;;5026423;28;20170;-67
2024/01/18 02:52:21;;;;;;;11.73;7.40;;;1.10;99.90;;;;;;5031988;28;20194;-66
2024/01/18 02:54:47;;;;;;;11.67;7.40;;;1.00;99.90;;;;;;5036118;28;20182;-66
2024/01/18 02:57:15;;;;;;;9.50;7.10;;;1.00;99.90;;;;;;5037417;28;20245;-67
2024/01/18 02:59:43;;;;;;;10.27;7.20;;;1.00;99.90;;;;;;5022306;28;20266;-66
2024/01/18 03:02:08;;;;;;;10.47;7.73;;;1.00;99.90;;;;;;5021104;28;20210;-66
2024/01/18 03:04:36;;;;;;;9.93;7.40;;;1.00;99.90;;;;;;5025168;28;20241;-66
2024/01/18 03:07:04;;;;;;;9.80;7.30;;;0.90;99.90;;;;;;5023356;28;20209;-66
2024/01/18 03:09:34;;;;;;;11.43;8.60;;;0.90;99.90;;;;;;5036704;28;20266;-66
2024/01/18 03:12:02;;;;;;;10.53;8.03;;;1.00;99.90;;;;;;5024045;28;20190;-64
2024/01/18 03:14:28;;;;;;;10.20;7.60;;;0.90;99.90;;;;;;5028402;28;20186;-66
2024/01/18 03:16:53;;;;;;;13.10;8.53;;;0.90;99.90;;;;;;5036201;28;20224;-66
2024/01/18 03:19:21;;;;;;;12.93;7.90;;;0.90;99.90;;;;;;5032054;28;20170;-66
2024/01/18 03:21:52;;;;;;;10.97;7.77;;;0.90;99.90;;;;;;5033309;28;20209;-64
2024/01/18 03:24:20;;;;;;;11.77;8.00;;;0.90;99.90;;;;;;5035352;28;20205;-67
2024/01/18 03:26:45;;;;;;;12.87;8.37;;;0.80;99.90;;;;;;5036944;28;20178;-66
2024/01/18 03:29:11;;;;;;;13.23;8.97;;;0.80;99.90;;;;;;5031758;28;20249;-66
2024/01/18 03:31:36;;;;;;;11.27;8.50;;;0.80;99.90;;;;;;5033108;28;20318;-66
2024/01/18 03:34:02;;;;;;;12.20;7.83;;;0.80;99.90;;;;;;5020778;28;20210;-66
2024/01/18 03:36:31;;;;;;;12.63;9.00;;;0.80;99.90;;;;;;5035513;28;20259;-66
2024/01/18 03:38:59;;;;;;;10.83;8.50;;;0.80;99.90;;;;;;5036632;28;20182;-66
2024/01/18 03:41:24;;;;;;;10.43;7.97;;;0.80;99.90;;;;;;5030897;28;20186;-67
2024/01/18 03:43:50;;;;;;;12.63;9.53;;;0.80;99.90;;;;;;5019710;28;20206;-66
2024/01/18 03:46:15;;;;;;;12.47;9.03;;;0.80;99.90;;;;;;5032120;28;20167;-66
2024/01/18 03:48:41;;;;;;;11.23;8.07;;;0.80;99.90;;;;;;5028324;28;20280;-64
2024/01/18 03:51:09;;;;;;;12.00;8.67;;;0.80;99.90;;;;;;5020409;28;20163;-65
2024/01/18 03:53:41;;;;;;;10.60;8.03;;;0.80;99.90;;;;;;5028376;28;20277;-66
2024/01/18 03:56:06;;;;;;;11.50;8.60;;;0.80;99.90;;;;;;5034963;28;20214;-65
2024/01/18 03:58:32;;;;;;;11.20;8.30;;;0.80;99.90;;;;;;5036184;28;20182;-65
2024/01/18 04:00:58;;;;;;;11.33;8.13;;;0.80;99.90;;;;;;5024768;28;20249;-63
2024/01/18 04:03:25;;;;;;;12.57;9.20;;;0.80;99.90;;;;;;5032906;28;20202;-66
2024/01/18 04:05:51;;;;;;;11.83;8.57;;;0.80;99.90;;;;;;5034160;28;20187;-67
2024/01/18 04:08:16;;;;;;;12.40;8.33;;;0.80;99.90;;;;;;5035176;28;20185;-66
2024/01/18 04:10:44;;;;;;;12.30;9.13;;;0.70;99.90;;;;;;5048817;28;20284;-67
2024/01/18 04:13:10;;;;;;;12.37;8.87;;;0.80;99.90;;;;;;5034540;28;20181;-66
2024/01/18 04:15:38;;;;;;;11.27;9.17;;;0.80;99.90;;;;;;5033109;28;20225;-66
2024/01/18 04:18:04;;;;;;;12.47;8.60;;;0.80;99.90;;;;;;5024990;28;20287;-66
2024/01/18 04:20:32;;;;;;;9.97;7.93;;;0.80;99.90;;;;;;5027303;28;20186;-66
2024/01/18 04:22:58;;;;;;;10.13;7.70;;;0.80;99.90;;;;;;5022295;28;20237;-66
2024/01/18 04:25:24;;;;;;;10.10;7.17;;;0.70;99.90;;;;;;5027156;28;20206;-62
2024/01/18 04:27:49;;;;;;;10.93;7.73;;;0.70;99.90;;;;;;5033739;28;20252;-61
2024/01/18 04:30:15;;;;;;;8.67;7.10;;;0.80;99.90;;;;;;5029201;28;20198;-61
2024/01/18 04:32:43;;;;;;;9.80;7.57;;;0.80;99.90;;;;;;5031175;28;20194;-62
2024/01/18 04:35:09;;;;;;;10.97;8.37;;;0.80;99.90;;;;;;5034603;28;20182;-62
2024/01/18 04:37:37;;;;;;;9.97;7.90;;;0.70;99.90;;;;;;5035115;28;20196;-62
2024/01/18 04:40:03;;;;;;;9.63;7.47;;;0.80;99.90;;;;;;5032694;28;20194;-61
2024/01/18 04:42:29;;;;;;;8.80;7.13;;;0.70;99.90;;;;;;5035181;28;20212;-62
2024/01/18 04:44:54;;;;;;;10.07;7.37;;;0.70;99.90;;;;;;5032051;28;20212;-62
2024/01/18 04:47:20;;;;;;;10.27;7.53;;;0.70;99.90;;;;;;5026248;28;20185;-62
2024/01/18 04:49:50;;;;;;;10.50;7.37;;;0.70;99.90;;;;;;5031089;28;20206;-63
2024/01/18 04:52:16;;;;;;;9.10;6.57;;;0.70;99.90;;;;;;5026215;28;20178;-62
2024/01/18 04:54:41;;;;;;;9.20;7.00;;;0.70;99.90;;;;;;5034414;28;20261;-62
2024/01/18 04:57:07;;;;;;;9.03;7.10;;;0.70;99.90;;;;;;5019919;28;20183;-62
2024/01/18 04:59:33;;;;;;;9.00;6.97;;;0.70;99.90;;;;;;5032162;28;20240;-62
2024/01/18 05:02:00;;;;;;;9.57;7.20;;;0.70;99.90;;;;;;5027442;28;20206;-62
2024/01/18 05:04:26;;;;;;;9.73;6.83;;;0.70;99.90;;;;;;5033768;28;20235;-62
2024/01/18 05:06:52;;;;;;;10.73;7.60;;;0.60;99.90;;;;;;5032491;28;20204;-62
2024/01/18 05:09:20;;;;;;;11.63;7.23;;;0.60;99.90;;;;;;5034490;28;20202;-62
2024/01/18 05:11:46;;;;;;;9.30;7.03;;;0.60;99.90;;;;;;5035218;28;20181;-62
2024/01/18 05:14:11;;;;;;;11.47;8.10;;;0.60;99.90;;;;;;5034140;28;20190;-62
2024/01/18 05:16:41;;;;;;;9.90;7.00;;;0.60;99.90;;;;;;5035031;28;20189;-61
2024/01/18 05:19:10;;;;;;;11.50;8.47;;;0.60;99.90;;;;;;5031484;28;20182;-62
2024/01/18 05:21:35;;;;;;;11.63;8.03;;;0.60;99.90;;;;;;5030722;28;20209;-62
2024/01/18 05:24:01;;;;;;;9.07;6.93;;;0.60;99.90;;;;;;5033665;28;20194;-62
2024/01/18 05:26:26;;;;;;;9.63;7.43;;;0.60;99.90;;;;;;5023095;28;20179;-62
2024/01/18 05:28:54;;;;;;;10.33;7.23;;;0.60;99.90;;;;;;5029859;28;20198;-62
2024/01/18 05:31:20;;;;;;;8.17;6.50;;;0.60;99.90;;;;;;5027556;28;20179;-62
2024/01/18 05:33:48;;;;;;;10.67;8.43;;;0.60;99.90;;;;;;5029054;28;20197;-62
2024/01/18 05:36:16;;;;;;;11.70;8.23;;;0.60;99.90;;;;;;5035131;28;20242;-62
2024/01/18 05:38:46;;;;;;;11.40;8.10;;;0.60;99.90;;;;;;5026088;28;20178;-61
2024/01/18 05:41:12;;;;;;;10.27;7.00;;;0.60;99.90;;;;;;5020528;28;20233;-63
2024/01/18 05:43:37;;;;;;;9.80;6.67;;;0.60;99.90;;;;;;5027731;28;20256;-62
2024/01/18 05:46:03;;;;;;;9.40;6.87;;;0.70;99.90;;;;;;5029474;28;20182;-62
2024/01/18 05:48:31;;;;;;;8.93;6.67;;;0.60;99.90;;;;;;5022718;28;20300;-63
2024/01/18 05:50:56;;;;;;;11.10;7.93;;;0.60;99.90;;;;;;5026331;28;20172;-62
2024/01/18 05:53:24;;;;;;;9.03;7.27;;;0.70;99.90;;;;;;5031703;28;20177;-62
2024/01/18 05:55:50;;;;;;;11.10;8.37;;;0.70;99.90;;;;;;5030447;28;20236;-62
2024/01/18 05:58:15;;;;;;;13.23;9.47;;;0.70;99.90;;;;;;5016086;28;20277;-60
2024/01/18 06:00:43;;;;;;;11.73;9.57;;;0.70;99.90;;;;;;5050277;28;20182;-62
2024/01/18 06:03:11;;;;;;;11.03;8.83;;;0.60;99.90;;;;;;5026363;28;20166;-63
2024/01/18 06:05:38;;;;;;;14.30;10.90;;;0.60;99.90;;;;;;5033168;28;20181;-63
2024/01/18 06:08:04;;;;;;;13.37;10.50;;;0.60;99.90;;;;;;5033785;28;20213;-62
2024/01/18 06:10:33;;;;;;;12.83;9.80;;;0.60;99.90;;;;;;5034197;28;20189;-62
2024/01/18 06:13:03;;;;;;;14.23;10.87;;;0.60;99.90;;;;;;5027222;28;20186;-63
2024/01/18 06:15:30;;;;;;;13.53;10.27;;;0.50;99.90;;;;;;5034005;28;20205;-63
2024/01/18 06:18:03;;;;;;;12.73;9.77;;;0.50;99.90;;;;;;5032538;28;20380;-62
2024/01/18 06:20:31;;;;;;;13.33;10.40;;;0.50;99.90;;;;;;5031678;28;20243;-63
2024/01/18 06:23:00;;;;;;;13.03;10.10;;;0.50;99.90;;;;;;5032402;28;20219;-62
2024/01/18 06:25:28;;;;;;;12.87;9.57;;;0.50;99.90;;;;;;5030723;28;20182;-62
2024/01/18 06:27:58;;;;;;;13.07;9.83;;;0.40;99.90;;;;;;5030607;28;20208;-64
2024/01/18 06:30:26;;;;;;;12.00;9.87;;;0.40;99.90;;;;;;5054257;28;20256;-63
2024/01/18 06:32:54;;;;;;;13.23;9.30;;;0.40;99.90;;;;;;5044396;28;20200;-64
2024/01/18 06:35:20;;;;;;;11.50;8.90;;;0.40;99.90;;;;;;5033919;28;20178;-62
2024/01/18 06:37:48;;;;;;;11.23;9.00;;;0.40;99.90;;;;;;5030105;28;20182;-63
2024/01/18 06:40:17;;;;;;;11.77;9.30;;;0.50;99.90;;;;;;5023546;28;20178;-63
2024/01/18 06:42:43;;;;;;;10.73;8.83;;;0.50;99.90;;;;;;5033176;28;20212;-63
2024/01/18 06:45:09;;;;;;;11.07;9.03;;;0.50;99.90;;;;;;5032999;28;20198;-61
2024/01/18 06:47:40;;;;;;;11.77;9.07;;;0.50;99.90;;;;;;5033321;28;20198;-61
2024/01/18 06:50:06;;;;;;;12.97;9.30;;;0.50;99.90;;;;;;5033269;28;20170;-62
2024/01/18 06:52:33;;;;;;;11.53;8.63;;;0.50;99.90;;;;;;5033252;28;20174;-63
2024/01/18 06:54:59;;;;;;;11.77;8.67;;;0.50;99.90;;;;;;5032892;28;20289;-61
2024/01/18 06:57:24;;;;;;;12.30;9.03;;;0.50;99.90;;;;;;5031754;28;20277;-62
2024/01/18 06:59:54;;;;;;;10.00;7.93;;;0.50;99.90;;;;;;5033624;28;20178;-62
2024/01/18 07:02:19;;;;;;;10.37;8.60;;;0.50;99.90;;;;;;5033293;28;20182;-62
2024/01/18 07:04:47;;;;;;;10.50;8.33;;;0.60;99.90;;;;;;5033317;28;20208;-61
2024/01/18 07:07:18;;;;;;;11.00;8.60;;;0.60;99.90;;;;;;5018072;28;20210;-63
2024/01/18 07:09:45;;;;;;;10.07;8.30;;;0.60;99.90;;;;;;5032770;28;20166;-62
2024/01/18 07:12:11;;;;;;;11.73;8.43;;;0.60;99.90;;;;;;5033098;28;20190;-61
2024/01/18 07:14:42;;;;;;;11.63;8.63;;;0.60;99.90;;;;;;5032867;28;20278;-62
2024/01/18 07:17:08;;;;;;;13.97;9.50;;;0.70;99.90;;;;;;5028154;28;20290;-63
2024/01/18 07:19:36;;;;;;;12.67;9.53;;;0.60;99.90;;;;;;5023085;28;20202;-63
2024/01/18 07:22:04;;;;;;;15.33;10.70;;;0.60;99.90;;;;;;5013486;28;20175;-62
2024/01/18 07:24:30;;;;;;;13.97;10.33;;;0.60;99.90;;;;;;5025333;28;20202;-62
2024/01/18 07:26:57;;;;;;;12.83;9.43;;;0.60;99.90;;;;;;5033358;28;20177;-62
2024/01/18 07:29:23;;;;;;;12.57;9.13;;;0.60;99.90;;;;;;5032559;28;20174;-62
2024/01/18 07:31:49;;;;;;;13.20;9.30;;;0.60;99.90;;;;;;5034189;28;20347;-61
2024/01/18 07:34:18;;;;;;;14.10;9.80;;;0.60;99.90;;;;;;5036436;28;20189;-62
2024/01/18 07:36:43;;;;;;;12.40;9.33;;;0.60;99.90;;;;;;5036357;28;20178;-61
2024/01/18 07:39:15;;;;;;;13.00;10.20;;;0.60;99.90;;;;;;5036598;28;20178;-62
2024/01/18 07:41:45;;;;;;;11.70;8.83;;;0.60;99.90;;;;;;5036549;28;20174;-62
2024/01/18 07:44:18;;;;;;;13.47;9.53;;;0.60;99.90;;;;;;5032563;28;20214;-62
2024/01/18 07:46:44;;;;;;;13.33;10.27;;;0.60;99.90;;;;;;5021793;28;20202;-62
2024/01/18 07:49:12;;;;;;;15.10;10.27;;;0.60;99.90;;;;;;5036220;28;20217;-62
2024/01/18 07:51:37;;;;;;;15.23;10.87;;;0.60;99.90;;;;;;5036197;28;20297;-61
2024/01/18 07:54:04;;;;;;;13.80;10.67;;;0.60;99.90;;;;;;5036191;28;20261;-62
2024/01/18 07:56:30;;;;;;;14.53;10.40;;;0.60;99.90;;;;;;5036040;28;20265;-62
2024/01/18 07:58:55;;;;;;;13.60;10.47;;;0.60;99.90;;;;;;5025150;28;20193;-63
2024/01/18 08:01:21;;;;;;;14.10;10.00;;;0.60;99.90;;;;;;5036016;28;20278;-61
2024/01/18 08:03:47;;;;;;;14.73;10.77;;;0.60;99.90;;;;;;5028589;28;20229;-63
2024/01/18 08:06:13;;;;;;;16.03;10.63;;;0.60;99.90;;;;;;5029394;28;20201;-63
2024/01/18 08:08:41;;;;;;;13.23;10.13;;;0.60;99.90;;;;;;5035935;28;20196;-62
2024/01/18 08:11:12;;;;;;;13.70;9.57;;;0.60;99.90;;;;;;5051019;28;20201;-62
2024/01/18 08:13:38;;;;;;;15.40;10.57;;;0.70;99.90;;;;;;5033168;28;20192;-62
2024/01/18 08:16:03;;;;;;;14.77;10.63;;;0.70;99.90;;;;;;5035303;28;20198;-62
2024/01/18 08:18:29;;;;;;;14.03;10.77;;;0.70;99.90;;;;;;5029815;28;20224;-63
2024/01/18 08:20:58;;;;;;;14.87;9.93;;;0.70;99.90;;;;;;5029873;28;20191;-62
2024/01/18 08:23:23;;;;;;;13.37;10.20;;;0.70;99.90;;;;;;5032778;28;20278;-62
2024/01/18 08:25:50;;;;;;;13.17;10.00;;;0.70;99.90;;;;;;5022932;28;20202;-61
2024/01/18 08:28:15;;;;;;;12.27;9.57;;;0.70;99.90;;;;;;5022102;28;20266;-62
2024/01/18 08:30:44;;;;;;;15.57;10.43;;;0.80;99.90;;;;;;5030923;28;20301;-62
2024/01/18 08:33:10;;;;;;;12.57;10.00;;;0.80;99.90;;;;;;5032139;28;20170;-62
2024/01/18 08:35:38;;;;;;;12.83;9.97;;;0.90;99.90;;;;;;5026954;28;20322;-62
2024/01/18 08:38:06;;;;;;;12.00;9.13;;;0.90;99.90;;;;;;5034841;28;20194;-62
2024/01/18 08:40:33;;;;;;;16.23;11.80;;;0.90;99.90;;;;;;5035883;28;20174;-62
2024/01/18 08:43:04;;;;;;;16.10;12.13;;;0.90;99.90;;;;;;5035757;28;20159;-63
2024/01/18 08:45:34;;;;;;;15.80;11.43;;;1.00;99.90;;;;;;5023368;28;20323;-62
2024/01/18 08:48:00;;;;;;;20.17;12.57;;;1.00;99.90;;;;;;5035859;28;20177;-62
2024/01/18 08:50:26;;;;;;;17.50;12.17;;;1.00;99.90;;;;;;5035779;28;20194;-62
2024/01/18 08:52:51;;;;;;;19.30;13.37;;;1.00;99.90;;;;;;5047131;28;20189;-62
2024/01/18 08:55:20;;;;;;;16.33;12.47;;;1.00;99.90;;;;;;5035564;28;20194;-62
2024/01/18 08:57:49;;;;;;;16.27;12.10;;;1.00;99.90;;;;;;5026147;28;20213;-62
2024/01/18 09:00:17;;;;;;;17.53;12.33;;;1.30;99.90;;;;;;5031981;28;20229;-62
2024/01/18 09:02:46;;;;;;;15.73;11.73;;;1.00;99.90;;;;;;5028742;28;20200;-62
2024/01/18 09:05:12;;;;;;;17.17;12.03;;;1.00;99.90;;;;;;5031440;28;20206;-62
2024/01/18 09:07:43;;;;;;;15.07;10.73;;;1.10;99.90;;;;;;5034849;28;20192;-62
2024/01/18 09:10:11;;;;;;;16.03;11.80;;;1.10;99.90;;;;;;5034876;28;20197;-62
2024/01/18 09:12:37;;;;;;;19.57;12.93;;;1.10;99.90;;;;;;5031648;28;20179;-62
2024/01/18 09:15:06;;;;;;;18.53;13.07;;;1.10;99.90;;;;;;5018209;28;20179;-62
2024/01/18 09:17:31;;;;;;;17.27;11.97;;;1.10;99.90;;;;;;5019243;28;20221;-62
2024/01/18 09:19:57;;;;;;;20.13;13.40;;;1.10;99.90;;;;;;5017556;28;20175;-63
2024/01/18 09:22:23;;;;;;;20.83;14.83;;;1.10;99.90;;;;;;5034239;28;20208;-62
2024/01/18 09:24:49;;;;;;;21.57;13.57;;;1.10;99.90;;;;;;5033738;28;20212;-62
2024/01/18 09:27:15;;;;;;;19.40;13.30;;;1.10;99.90;;;;;;5034646;28;20231;-62
2024/01/18 09:29:43;;;;;;;18.60;13.83;;;1.10;99.90;;;;;;5034209;28;20193;-63
2024/01/18 09:32:11;;;;;;;17.90;13.30;;;1.10;99.90;;;;;;5034417;28;20177;-62
2024/01/18 09:34:37;;;;;;;18.37;13.00;;;1.10;99.90;;;;;;5034737;28;20189;-62
2024/01/18 09:37:05;;;;;;;20.50;15.13;;;1.20;99.90;;;;;;5034119;28;20182;-62
2024/01/18 09:39:35;;;;;;;18.33;13.90;;;1.20;99.90;;;;;;5033683;28;20221;-63
2024/01/18 09:42:03;;;;;;;17.97;13.10;;;1.20;99.90;;;;;;5031447;28;20264;-62
2024/01/18 09:44:32;;;;;;;19.63;13.63;;;1.20;99.90;;;;;;5037092;28;20196;-63
2024/01/18 09:47:01;;;;;;;21.07;15.20;;;1.30;99.90;;;;;;5025407;28;20196;-63
2024/01/18 09:49:30;;;;;;;22.40;15.63;;;1.30;99.90;;;;;;5032601;28;20177;-63
2024/01/18 09:51:58;;;;;;;19.07;15.07;;;1.30;99.90;;;;;;5033670;28;20432;-63
2024/01/18 09:54:26;;;;;;;22.40;16.60;;;1.30;99.90;;;;;;5034115;28;20212;-62
2024/01/18 09:56:53;;;;;;;22.70;17.60;;;1.30;99.90;;;;;;5033409;28;20223;-62
2024/01/18 09:59:25;;;;;;;21.50;15.77;;;1.30;99.90;;;;;;5030038;28;20179;-63
2024/01/18 10:01:50;;;;;;;21.07;15.40;;;1.30;99.90;;;;;;5022784;28;20202;-64
2024/01/18 10:04:19;;;;;;;21.10;15.57;;;1.30;99.90;;;;;;5033174;28;20202;-63
2024/01/18 10:06:44;;;;;;;24.77;17.13;;;1.30;99.90;;;;;;5034371;28;20166;-65
2024/01/18 10:09:10;;;;;;;19.63;14.70;;;1.20;99.90;;;;;;5034415;28;20227;-65
2024/01/18 10:11:40;;;;;;;24.13;16.83;;;1.20;99.90;;;;;;5034310;28;20243;-65
2024/01/18 10:14:08;;;;;;;18.77;14.30;;;1.20;99.90;;;;;;5033188;28;20201;-63
2024/01/18 10:16:38;;;;;;;21.97;15.43;;;1.20;99.90;;;;;;5034200;28;20185;-63
2024/01/18 10:19:18;;;;;;;18.97;14.63;;;1.20;99.90;;;;;;5034339;28;20223;-63
2024/01/18 10:21:49;;;;;;;22.83;14.97;;;1.20;99.90;;;;;;5032127;28;20162;-63
2024/01/18 10:24:17;;;;;;;19.00;14.47;;;1.20;99.90;;;;;;5025537;28;20216;-63
2024/01/18 10:26:46;;;;;;;21.37;14.90;;;1.20;99.90;;;;;;5020269;28;20263;-63
2024/01/18 10:29:13;;;;;;;16.00;13.13;;;1.20;99.90;;;;;;5033661;28;20170;-64
2024/01/18 10:31:42;;;;;;;21.40;16.67;;;1.30;99.90;;;;;;5030687;28;20198;-63
2024/01/18 10:34:08;;;;;;;21.13;15.13;;;1.30;99.90;;;;;;5032832;28;20174;-64
2024/01/18 10:36:33;;;;;;;19.93;15.03;;;1.40;99.90;;;;;;5033935;28;20563;-64
2024/01/18 10:39:21;;;;;;;23.43;16.87;;;1.40;99.90;;;;;;5033652;28;20205;-63
2024/01/18 10:41:47;;;;;;;21.80;16.33;;;1.50;99.90;;;;;;5020470;28;20285;-63
2024/01/18 10:44:20;;;;;;;22.90;16.53;;;1.50;99.90;;;;;;5029572;28;20209;-63
2024/01/18 10:46:49;;;;;;;24.17;17.60;;;1.60;99.90;;;;;;5027123;28;20236;-62
2024/01/18 10:49:17;;;;;;;26.50;18.87;;;1.60;99.90;;;;;;5028601;28;20189;-62
2024/01/18 10:51:43;;;;;;;27.00;19.50;;;1.70;99.90;;;;;;5030251;28;20194;-63
2024/01/18 10:54:12;;;;;;;27.00;19.93;;;1.80;99.90;;;;;;5031513;28;22048;-63
2024/01/18 10:56:39;;;;;;;23.33;16.87;;;1.80;99.90;;;;;;5044156;28;20236;-63
2024/01/18 10:59:06;;;;;;;24.93;18.60;;;1.90;99.90;;;;;;5015188;28;20237;-65
2024/01/18 11:01:33;;;;;;;26.47;19.73;;;2.00;99.90;;;;;;5033235;28;20210;-65
2024/01/18 11:03:59;;;;;;;25.90;19.17;;;2.10;99.90;;;;;;5033629;28;20292;-65
2024/01/18 11:06:26;;;;;;;29.43;20.20;;;2.20;99.90;;;;;;5034201;28;20242;-65
2024/01/18 11:08:54;;;;;;;26.10;18.93;;;2.10;99.90;;;;;;5017593;28;20212;-64
2024/01/18 11:11:23;;;;;;;23.67;18.37;;;2.30;99.90;;;;;;5030997;28;20194;-65
2024/01/18 11:13:48;;;;;;;27.03;19.77;;;2.30;99.90;;;;;;5037475;28;20180;-65
2024/01/18 11:16:17;;;;;;;27.53;19.90;;;2.50;99.90;;;;;;5037683;28;20300;-64
2024/01/18 11:18:50;;;;;;;29.70;20.73;;;2.60;99.90;;;;;;5028377;28;20174;-64
2024/01/18 11:21:15;;;;;;;29.93;20.80;;;2.70;99.90;;;;;;5036061;28;20261;-64
2024/01/18 11:23:41;;;;;;;25.17;19.07;;;2.80;99.90;;;;;;5036021;28;20419;-64
2024/01/18 11:26:11;;;;;;;26.30;18.47;;;2.80;99.90;;;;;;5035760;28;20227;-64
2024/01/18 11:28:36;;;;;;;27.07;19.93;;;2.80;99.90;;;;;;5035973;28;20204;-63
2024/01/18 11:31:05;;;;;;;25.63;18.63;;;2.80;99.90;;;;;;5035843;28;20166;-64
2024/01/18 11:33:31;;;;;;;26.90;19.43;;;2.80;99.90;;;;;;5043945;28;20178;-64
2024/01/18 11:35:59;;;;;;;25.90;20.00;;;2.90;99.90;;;;;;5072733;28;20173;-64
2024/01/18 11:38:28;;;;;;;31.93;22.13;;;2.90;99.90;;;;;;5045419;28;20182;-65
2024/01/18 11:40:58;;;;;;;26.30;18.87;;;3.00;99.90;;;;;;5016142;28;20198;-64
2024/01/18 11:44:06;;;;;;;27.33;19.77;;;3.00;99.90;;;;;;5031130;28;20201;-64
2024/01/18 11:46:38;;;;;;;23.90;18.60;;;3.10;99.90;;;;;;5025481;28;20262;-64
2024/01/18 11:49:08;;;;;;;27.57;20.27;;;3.20;99.90;;;;;;5035413;28;20256;-63
2024/01/18 11:51:35;;;;;;;27.23;19.93;;;3.20;99.90;;;;;;5034970;28;20174;-64
2024/01/18 11:54:01;;;;;;;26.53;20.10;;;3.30;99.90;;;;;;5035430;28;20256;-63
2024/01/18 11:56:34;;;;;;;25.97;18.80;;;3.40;99.90;;;;;;5039487;28;20174;-63
2024/01/18 11:59:00;;;;;;;23.73;18.30;;;3.40;99.90;;;;;;5043442;28;20185;-63
2024/01/18 12:01:26;;;;;;;21.87;16.63;;;3.40;99.90;;;;;;5035611;28;20178;-64
2024/01/18 12:03:54;;;;;;;21.90;16.80;;;3.50;99.90;;;;;;5035072;28;20221;-64
2024/01/18 12:06:20;;;;;;;23.10;17.17;;;3.60;99.90;;;;;;5035133;28;20227;-64
2024/01/18 12:08:49;;;;;;;27.53;20.20;;;3.90;99.90;;;;;;5035680;28;20253;-66
2024/01/18 12:11:17;;;;;;;24.23;17.83;;;4.10;99.90;;;;;;5034728;28;20317;-63
2024/01/18 12:13:43;;;;;;;24.43;18.30;;;4.30;99.90;;;;;;5035315;28;20212;-68
2024/01/18 12:16:20;;;;;;;24.00;19.10;;;4.50;99.90;;;;;;4996545;28;1098836;-67
2024/01/18 12:18:46;;;;;;;22.97;18.40;;;4.50;99.90;;;;;;5016492;28;20182;-67
2024/01/18 12:21:16;;;;;;;25.80;19.60;;;4.60;99.90;;;;;;5023008;28;20193;-69
2024/01/18 12:23:42;;;;;;;24.93;17.13;;;4.70;99.90;;;;;;5036387;28;20205;-70
2024/01/18 12:26:08;;;;;;;20.70;15.70;;;4.70;99.90;;;;;;5035482;28;20201;-74
2024/01/18 12:28:33;;;;;;;19.27;15.37;;;4.70;99.90;;;;;;5032696;28;20265;-62
2024/01/18 12:31:04;;;;;;;19.77;15.13;;;4.80;99.90;;;;;;5032557;28;20198;-62
2024/01/18 12:33:31;;;;;;;19.20;14.83;;;4.90;99.90;;;;;;5016526;28;20190;-63
2024/01/18 12:35:59;;;;;;;19.50;13.60;;;4.90;99.90;;;;;;5027967;28;20272;-63
2024/01/18 12:38:27;;;;;;;18.17;13.63;;;4.90;99.90;;;;;;5030189;28;20206;-63
2024/01/18 12:40:53;;;;;;;16.57;13.73;;;5.00;99.90;;;;;;5034106;28;20228;-67
2024/01/18 12:43:21;;;;;;;16.93;14.17;;;5.00;99.90;;;;;;5032509;28;20269;-67
2024/01/18 12:45:53;;;;;;;18.80;13.00;;;5.00;99.90;;;;;;5034278;28;20263;-68